COOK1: Arkansas River Nr Coolidge, KS

                                SHEF ID:       COOK1     ARKANSAS R NR COOLIDGE, KS
STATION TYPE:
Regulating: Stage = 8.00, Flow = 2041

PRECIP STAGE STAGE(2) RIV-FLOW WTR-TEMP CONDUCT BAT-LOAD
in ft ft cfs F umho/cm volt
Ccp-Rev Ccp-Rev Ccp-Rev Ccp-Rev Ccp-Rev Ccp-Rev Ccp-Rev
(America/Chicago)
08/24 00:00 0.00 2.65 2.63 63 73.81 5747 13.00
08/24 01:00 0.00 2.64 2.62 62 73.06 5897 12.95
08/24 02:00 0.00 2.65 2.63 63 72.27 6111 12.89
08/24 03:00 0.00 2.67 2.64 64 71.44 6170 12.89
08/24 04:00 0.00 2.70 2.69 67 70.54 6181 12.89
08/24 05:00 0.00 2.69 2.69 66 69.78 5999 12.89
08/24 06:00 0.00 2.69 2.68 66 69.39 5767 12.83
08/24 07:00 0.00 2.65 2.67 63 68.90 5582 12.83
08/24 08:00 0.00 2.65 2.64 63 68.50 5558 12.83
08/24 09:00 0.00 2.64 2.63 62 68.81 5596 12.95
08/24 10:00 0.00 2.64 2.62 62 70.00 5713 13.30
08/24 11:00 0.00 2.62 2.61 60 71.87 5814 13.71
08/24 12:00 0.00 2.60 2.61 58 74.37 5868 13.77
08/24 13:00 0.00 2.60 2.60 58 76.87 5906 13.77
08/24 14:00 0.00 2.61 2.60 59 79.18 5949 13.83
08/24 15:00 0.00 2.59 2.58 57 81.28 5983 13.83
08/24 16:00 0.00 2.61 2.60 59 82.31 6007 13.83
08/24 17:00 0.00 2.60 2.58 58 81.93 6030 13.83
08/24 18:00 0.00 2.58 2.58 56 81.46 6053 13.18
08/24 19:00 0.00 2.59 2.57 57 80.53 6071 13.18
08/24 20:00 0.00 2.59 2.57 57 78.94 6093 13.07
08/24 21:00 0.00 2.59 2.58 57 77.63 6113 13.07
08/24 22:00 0.00 2.58 2.58 56 76.42 6124 13.00
08/24 23:00 ---- ---- ---- ---- ---- ---- ----
Data processed at Sun 25Aug2024 04:30 GMT

Parsing this webpage?

Checkout our new Data API! CWMSDataAPI (CDA)

Timeseries IDs (TSIDs)

TSIDs used from left to right in the data table
COOL.Precip-Inc.Total.1Hour.1Hour.Ccp-Rev
COOL.Stage.Inst.1Hour.0.Ccp-Rev
COOL.Stage-Alt.Inst.1Hour.0.Ccp-Rev
COOL.Flow.Inst.1Hour.0.Ccp-Rev
COOL.Temp-Water.Inst.1Hour.0.Ccp-Rev
COOL.Cond.Inst.1Hour.0.Ccp-Rev
COOL.Volt-Battery Load.Inst.1Hour.0.Ccp-Rev

                            

All information presented herein is the property of the government of the United States of America and may be revised or deleted at any time without prior notice. Dissemination of this information without the expressed written consent of the Public Affairs Office, Tulsa District U.S. Army Corps of Engineers is strictly prohibited. These data are gathered electronically and, as presented, have NOT undergone any form of quality control. These data are NOT guaranteed to be valid or correct.